Pagina principală
METAR-TAF:

METAR-TAF

Aeroporturi :

Weipa, Australia

Latitudine: 12-40-43S, longitudine: 141-55-31E, elevație: 19 m

Observații meteo curente

Raportul a fost făcut în urmă cu 1 oră și 7 de minute, la 23:00 UTC
Vânt 16 kt de la Est
Temperatură 26°C
Umiditate 58%
Presiune 1015 hPa
Vizibilitate de 10 km sau mai mult

METAR: YBWP 222300Z AUTO 10016KT 9999 // NCD 26/17 Q1015

Ora: 10:07 (00:07 UTC)


TAF: lipsă

Observații și prognoze meteo pentru peste 4.000 de aeroporturi (rapoarte METAR și TAF).

Stațiile disponibile sunt reprezentate pe hartă prin puncte galbene și roșii.

Țineți indicatorul mouse-ului pe punctul dorit pentru a vedea denumirea stației.

Apoi, faceți clic pentru a vedea observațiile și prognozele meteorologice.

Pentru a schimba harta: Pentru mărire, faceți clic pe butoanele verzi cu cruce neagră; pentru micșorare, pe butonul verde cu o liniuță; pentru hărți învecinate, pe săgețile verzi.


METAR-TAF: